Time;durP1;ratioP1;P1;durP2;ratioP2;P2;SDS_P1;SDS_P2;PMS_P1;PMS_P2;Temp;Humidity;BMP_temperature;BMP_pressure;BME280_temperature;BME280_humidity;BME280_pressure;Samples;Min_cycle;Max_cycle;Signal;HPM_P1;HPM_P2
2022/03/29 00:02:00;;;;;;;24.92;18.77;;;6.40;99.90;;;;;;5092510;28;20043;-51
2022/03/29 00:04:26;;;;;;;27.70;17.80;;;6.30;99.90;;;;;;5074146;28;20130;-46
2022/03/29 00:06:53;;;;;;;29.95;18.60;;;6.20;99.90;;;;;;5092091;28;22150;-46
2022/03/29 00:09:19;;;;;;;28.48;18.13;;;6.10;99.90;;;;;;5092133;28;20114;-47
2022/03/29 00:11:45;;;;;;;25.55;17.45;;;6.20;99.90;;;;;;5091065;28;20092;-49
2022/03/29 00:14:12;;;;;;;30.48;19.05;;;6.20;99.90;;;;;;5091515;28;20102;-47
2022/03/29 00:16:38;;;;;;;25.40;18.65;;;6.20;99.90;;;;;;5091880;28;20047;-50
2022/03/29 00:19:04;;;;;;;27.67;19.02;;;6.40;99.90;;;;;;5092720;28;20039;-49
2022/03/29 00:21:30;;;;;;;28.23;20.00;;;6.40;99.90;;;;;;5090253;28;20046;-48
2022/03/29 00:23:56;;;;;;;26.40;18.70;;;6.40;99.90;;;;;;5090828;28;20039;-51
2022/03/29 00:26:23;;;;;;;28.80;19.10;;;6.30;99.90;;;;;;5090136;28;20871;-47
2022/03/29 00:28:49;;;;;;;26.73;18.48;;;6.40;99.90;;;;;;5091601;28;20298;-46
2022/03/29 00:31:19;;;;;;;31.20;19.55;;;6.10;99.90;;;;;;5072661;28;20112;-49
2022/03/29 00:33:50;;;;;;;28.75;20.10;;;6.20;99.90;;;;;;5091160;28;20046;-46
2022/03/29 00:36:17;;;;;;;26.33;19.05;;;6.40;99.90;;;;;;5091591;28;20541;-49
2022/03/29 00:38:43;;;;;;;27.63;17.85;;;6.20;99.90;;;;;;5091428;28;20035;-46
2022/03/29 00:41:09;;;;;;;29.10;18.70;;;6.20;99.90;;;;;;5090110;28;20053;-45
2022/03/29 00:43:35;;;;;;;28.00;19.00;;;6.30;99.90;;;;;;5071738;28;20052;-46
2022/03/29 00:46:01;;;;;;;27.45;18.05;;;6.30;99.90;;;;;;5090789;28;20483;-46
2022/03/29 00:48:27;;;;;;;30.23;19.70;;;6.30;99.90;;;;;;5090787;28;20043;-49
2022/03/29 00:50:54;;;;;;;28.60;16.90;;;6.20;99.90;;;;;;5090052;28;20043;-47
2022/03/29 00:53:22;;;;;;;30.98;19.05;;;6.30;99.90;;;;;;5091487;28;20499;-47
2022/03/29 00:55:50;;;;;;;29.48;19.35;;;6.30;99.90;;;;;;5091180;28;20044;-47
2022/03/29 00:58:17;;;;;;;27.05;18.45;;;;;;;;;;5090187;28;20035;-45
2022/03/29 01:00:44;;;;;;;28.15;18.15;;;6.30;99.90;;;;;;5090770;28;20481;-48
2022/03/29 01:03:15;;;;;;;30.23;17.92;;;6.30;99.90;;;;;;5089930;28;20063;-46
2022/03/29 01:05:41;;;;;;;25.13;17.55;;;;;;;;;;5090584;28;20055;-46
2022/03/29 01:08:06;;;;;;;23.88;17.50;;;6.30;99.90;;;;;;5092699;28;20044;-46
2022/03/29 01:10:33;;;;;;;26.65;18.02;;;6.20;99.90;;;;;;5106383;27;20050;-48
2022/03/29 01:12:59;;;;;;;27.05;17.67;;;6.10;99.90;;;;;;5091201;28;20054;-47
2022/03/29 01:15:26;;;;;;;25.58;16.77;;;6.20;99.90;;;;;;5073541;28;20087;-45
2022/03/29 01:17:54;;;;;;;27.52;17.35;;;6.20;99.90;;;;;;5092577;28;20047;-45
2022/03/29 01:20:27;;;;;;;29.08;18.85;;;6.10;99.90;;;;;;5091372;28;20427;-45
2022/03/29 01:22:54;;;;;;;26.95;17.42;;;6.30;99.90;;;;;;5091227;28;20434;-48
2022/03/29 01:25:34;;;;;;;25.42;17.30;;;6.20;99.90;;;;;;5072190;28;20036;-47
2022/03/29 01:28:02;;;;;;;28.65;18.83;;;5.00;99.90;;;;;;5090822;28;20427;-46
2022/03/29 01:30:30;;;;;;;25.75;16.98;;;6.20;99.90;;;;;;5090520;28;20066;-46
2022/03/29 01:32:58;;;;;;;29.60;18.42;;;6.20;99.90;;;;;;5090249;28;20039;-47
2022/03/29 01:35:25;;;;;;;26.50;17.55;;;6.10;99.90;;;;;;5089451;28;20051;-46
2022/03/29 01:37:52;;;;;;;27.75;16.83;;;6.20;99.90;;;;;;5091031;28;20059;-48
2022/03/29 01:40:20;;;;;;;28.52;17.98;;;6.10;99.90;;;;;;5091189;28;20040;-47
2022/03/29 01:42:50;;;;;;;23.35;15.77;;;6.20;99.90;;;;;;5090998;28;20123;-46
2022/03/29 01:45:17;;;;;;;26.65;17.00;;;6.20;99.90;;;;;;5089988;28;20058;-46
2022/03/29 01:47:43;;;;;;;22.30;17.38;;;6.10;99.90;;;;;;5071038;28;20040;-46
2022/03/29 01:50:11;;;;;;;24.17;16.63;;;6.20;99.90;;;;;;5091084;28;20046;-45
2022/03/29 01:52:41;;;;;;;26.63;16.13;;;6.20;99.90;;;;;;5090276;28;20112;-45
2022/03/29 01:55:12;;;;;;;23.77;16.17;;;6.20;99.90;;;;;;5090245;28;20044;-45
2022/03/29 01:57:38;;;;;;;25.25;15.38;;;6.30;99.90;;;;;;5088680;28;20067;-50
2022/03/29 02:02:52;;;;;;;22.25;16.05;;;6.30;99.90;;;;;;5089800;28;20054;-49
2022/03/29 02:05:19;;;;;;;24.92;15.40;;;6.10;99.90;;;;;;5090450;28;20055;-47
2022/03/29 02:07:45;;;;;;;22.45;15.60;;;6.30;99.90;;;;;;5106676;28;20066;-50
2022/03/29 02:10:14;;;;;;;26.10;16.52;;;6.20;99.90;;;;;;5090240;28;20082;-50
2022/03/29 02:12:40;;;;;;;24.08;16.15;;;6.10;99.90;;;;;;5089562;28;20130;-48
2022/03/29 02:15:06;;;;;;;23.73;16.95;;;6.20;99.90;;;;;;5091110;28;21090;-50
2022/03/29 02:17:34;;;;;;;24.75;16.30;;;6.00;99.90;;;;;;5094798;28;20028;-49
2022/03/29 02:20:00;;;;;;;28.25;16.83;;;6.20;99.90;;;;;;5094761;28;20077;-52
2022/03/29 02:22:25;;;;;;;26.38;16.73;;;6.20;99.90;;;;;;5094062;28;20044;-50
2022/03/29 02:24:52;;;;;;;27.83;17.35;;;6.20;99.90;;;;;;5075784;28;20059;-49
2022/03/29 02:27:18;;;;;;;24.38;16.88;;;6.20;99.90;;;;;;5095466;28;20051;-52
2022/03/29 02:29:43;;;;;;;27.48;17.80;;;6.20;99.90;;;;;;5094029;28;20046;-50
2022/03/29 02:32:10;;;;;;;31.15;17.88;;;6.20;99.90;;;;;;5094789;28;20227;-49
2022/03/29 02:34:35;;;;;;;28.30;17.50;;;6.00;99.90;;;;;;5094558;28;20040;-50
2022/03/29 02:37:01;;;;;;;24.73;16.25;;;6.30;99.90;;;;;;5094050;28;20486;-50
2022/03/29 02:39:27;;;;;;;27.95;17.50;;;6.30;99.90;;;;;;5095881;28;20054;-49
2022/03/29 02:41:55;;;;;;;30.67;18.65;;;6.20;99.90;;;;;;5094251;28;20622;-47
2022/03/29 02:44:20;;;;;;;30.63;18.60;;;6.20;99.90;;;;;;5094424;28;20535;-47
2022/03/29 02:46:46;;;;;;;28.48;18.38;;;6.00;99.90;;;;;;5093237;28;20040;-50
2022/03/29 02:49:13;;;;;;;28.92;20.50;;;6.30;99.90;;;;;;5075138;28;20051;-50
2022/03/29 02:51:40;;;;;;;29.05;19.25;;;;;;;;;;5093382;28;20071;-49
2022/03/29 02:54:05;;;;;;;29.27;18.67;;;6.00;99.90;;;;;;5093315;28;20043;-51
2022/03/29 02:56:33;;;;;;;26.70;19.17;;;5.90;99.90;;;;;;5092347;28;20484;-51
2022/03/29 02:58:59;;;;;;;30.52;20.10;;;6.20;99.90;;;;;;5092861;28;20087;-51
2022/03/29 03:01:28;;;;;;;31.60;20.05;;;6.20;99.90;;;;;;5074313;28;20665;-50
2022/03/29 03:03:55;;;;;;;30.88;19.35;;;6.10;99.90;;;;;;5093530;28;20285;-51
2022/03/29 03:06:21;;;;;;;28.08;19.30;;;6.20;99.90;;;;;;5092867;28;20044;-50
2022/03/29 03:08:46;;;;;;;35.03;19.45;;;6.20;99.90;;;;;;5075225;28;20698;-45
2022/03/29 03:11:12;;;;;;;31.38;20.17;;;5.90;99.90;;;;;;5093746;28;20884;-47
2022/03/29 03:13:39;;;;;;;36.63;20.75;;;6.00;99.90;;;;;;5074239;28;20269;-47
2022/03/29 03:16:05;;;;;;;33.17;19.75;;;6.10;99.90;;;;;;5092339;28;20043;-45
2022/03/29 03:18:32;;;;;;;31.77;19.70;;;6.10;99.90;;;;;;5092359;28;20574;-46
2022/03/29 03:21:00;;;;;;;32.78;20.48;;;6.00;99.90;;;;;;5093568;28;20498;-46
2022/03/29 03:23:26;;;;;;;32.38;20.90;;;6.20;99.90;;;;;;5092463;28;20126;-46
2022/03/29 03:25:51;;;;;;;29.77;20.08;;;6.10;99.90;;;;;;5092442;28;20046;-46
2022/03/29 03:28:17;;;;;;;32.28;20.60;;;6.00;99.90;;;;;;5091422;28;21254;-47
2022/03/29 03:30:43;;;;;;;38.83;20.98;;;6.00;99.90;;;;;;5092975;28;20113;-46
2022/03/29 03:33:09;;;;;;;32.35;21.17;;;6.10;99.90;;;;;;5092132;28;20799;-49
2022/03/29 03:35:35;;;;;;;30.65;19.27;;;6.10;99.90;;;;;;5092409;28;20104;-47
2022/03/29 03:38:00;;;;;;;32.33;19.98;;;6.10;99.90;;;;;;5093053;28;20663;-46
2022/03/29 03:40:26;;;;;;;31.38;21.05;;;6.20;99.90;;;;;;5092896;28;20725;-47
2022/03/29 03:42:52;;;;;;;31.02;19.25;;;6.00;99.90;;;;;;5092570;28;20047;-47
2022/03/29 03:45:18;;;;;;;34.70;21.08;;;5.90;99.90;;;;;;5092736;28;20040;-48
2022/03/29 03:47:46;;;;;;;33.10;20.70;;;6.20;99.90;;;;;;5092345;28;20130;-47
2022/03/29 03:50:13;;;;;;;36.33;21.30;;;6.10;99.90;;;;;;5092481;28;20036;-46
2022/03/29 03:52:39;;;;;;;34.30;21.30;;;6.00;99.90;;;;;;5091968;28;20602;-47
2022/03/29 03:55:05;;;;;;;36.33;20.70;;;6.10;99.90;;;;;;5093350;28;20044;-45
2022/03/29 03:57:33;;;;;;;34.70;20.27;;;6.00;99.90;;;;;;5092449;28;20054;-47
2022/03/29 04:00:00;;;;;;;32.83;19.20;;;6.00;99.90;;;;;;5092613;28;20697;-47
2022/03/29 04:02:26;;;;;;;37.25;20.77;;;5.90;99.90;;;;;;5091379;28;20048;-48
2022/03/29 04:04:54;;;;;;;32.17;20.05;;;6.00;99.90;;;;;;5091942;28;20070;-47
2022/03/29 04:07:19;;;;;;;33.78;20.52;;;5.90;99.90;;;;;;5093017;28;20070;-45
2022/03/29 04:09:45;;;;;;;45.30;22.75;;;6.10;99.90;;;;;;5092561;28;20043;-49
2022/03/29 04:12:11;;;;;;;35.08;21.27;;;6.10;99.90;;;;;;5073547;28;20070;-46
2022/03/29 04:14:37;;;;;;;31.67;21.35;;;6.10;99.90;;;;;;5091383;28;20114;-45
2022/03/29 04:17:04;;;;;;;32.00;19.77;;;6.10;99.90;;;;;;5092038;28;20073;-46
2022/03/29 04:19:30;;;;;;;36.60;20.10;;;6.00;99.90;;;;;;5091103;28;20070;-46
2022/03/29 04:21:56;;;;;;;36.28;20.63;;;6.10;99.90;;;;;;5091681;28;20034;-47
2022/03/29 04:24:22;;;;;;;33.03;21.30;;;6.20;99.90;;;;;;5092374;28;20051;-47
2022/03/29 04:26:48;;;;;;;36.35;21.63;;;6.10;99.90;;;;;;5092126;28;20043;-50
2022/03/29 04:29:14;;;;;;;29.73;20.17;;;5.80;99.90;;;;;;5091952;28;20572;-49
2022/03/29 04:31:42;;;;;;;35.03;21.83;;;6.00;99.90;;;;;;5091225;28;20565;-50
2022/03/29 04:34:08;;;;;;;37.92;21.73;;;;;;;;;;5092361;28;20032;-50
2022/03/29 04:36:34;;;;;;;27.70;18.40;;;;;;;;;;5090643;28;20040;-47
2022/03/29 04:39:04;;;;;;;32.40;18.75;;;6.10;99.90;;;;;;5091875;28;21012;-51
2022/03/29 04:41:29;;;;;;;29.90;19.55;;;6.10;99.90;;;;;;5091961;28;20134;-52
2022/03/29 04:43:55;;;;;;;34.00;19.55;;;6.00;99.90;;;;;;5092504;28;20126;-52
2022/03/29 04:46:21;;;;;;;35.45;20.27;;;;;;;;;;5091548;28;20036;-49
2022/03/29 04:48:47;;;;;;;33.10;20.58;;;6.10;99.90;;;;;;5091398;28;20138;-51
2022/03/29 04:51:12;;;;;;;30.42;20.23;;;6.00;99.90;;;;;;5091665;28;20035;-53
2022/03/29 04:53:38;;;;;;;35.92;19.60;;;6.10;99.90;;;;;;5090492;28;20072;-54
2022/03/29 04:56:05;;;;;;;33.03;21.23;;;6.10;99.90;;;;;;5091367;28;20093;-52
2022/03/29 04:58:31;;;;;;;37.05;22.95;;;6.20;99.90;;;;;;5090829;28;20118;-51
2022/03/29 05:00:58;;;;;;;35.95;21.38;;;6.00;99.90;;;;;;5091881;27;20552;-50
2022/03/29 05:03:26;;;;;;;36.80;22.13;;;6.00;99.90;;;;;;5092611;28;20534;-51
2022/03/29 05:05:52;;;;;;;36.90;21.63;;;6.10;99.90;;;;;;5090997;28;20051;-53
2022/03/29 05:08:17;;;;;;;34.50;21.45;;;6.00;99.90;;;;;;5071476;28;20044;-53
2022/03/29 05:10:43;;;;;;;36.65;22.08;;;6.00;99.90;;;;;;5073224;28;20063;-53
2022/03/29 05:13:09;;;;;;;31.27;20.80;;;6.00;99.90;;;;;;5090573;28;20382;-54
2022/03/29 05:15:36;;;;;;;37.03;21.45;;;6.10;99.90;;;;;;5090343;28;20556;-52
2022/03/29 05:18:05;;;;;;;34.50;21.63;;;5.90;99.90;;;;;;5072152;28;20676;-52
2022/03/29 05:20:31;;;;;;;44.97;23.15;;;6.00;99.90;;;;;;5089672;28;20088;-54
2022/03/29 05:22:56;;;;;;;34.85;21.73;;;6.00;99.90;;;;;;5091995;28;20039;-54
2022/03/29 05:25:24;;;;;;;34.63;22.30;;;5.90;99.90;;;;;;5089389;28;20036;-50
2022/03/29 05:27:52;;;;;;;37.97;21.80;;;6.00;99.90;;;;;;5090378;28;20051;-51
2022/03/29 05:30:19;;;;;;;35.80;22.85;;;6.00;99.90;;;;;;5090508;28;20058;-54
2022/03/29 05:32:45;;;;;;;37.72;23.35;;;5.90;99.90;;;;;;5087828;28;20040;-53
2022/03/29 05:35:12;;;;;;;34.20;22.58;;;5.90;99.90;;;;;;5089733;28;20522;-52
2022/03/29 05:37:39;;;;;;;37.28;21.15;;;6.10;99.90;;;;;;5091029;28;20126;-53
2022/03/29 05:40:07;;;;;;;43.78;25.42;;;6.00;99.90;;;;;;5091236;28;20126;-53
2022/03/29 05:42:43;;;;;;;35.17;22.65;;;6.00;99.90;;;;;;5089019;28;20044;-53
2022/03/29 05:45:10;;;;;;;44.50;22.33;;;6.10;99.90;;;;;;5090151;28;20047;-52
2022/03/29 05:50:23;;;;;;;38.25;22.27;;;6.10;99.90;;;;;;5093306;28;20112;-54
2022/03/29 05:52:48;;;;;;;35.92;23.23;;;6.20;99.90;;;;;;5075405;28;20049;-53
2022/03/29 05:55:15;;;;;;;36.13;22.48;;;6.00;99.90;;;;;;5094333;28;20039;-53
2022/03/29 05:57:40;;;;;;;36.10;21.48;;;6.10;99.90;;;;;;5093085;28;20086;-54
2022/03/29 06:00:10;;;;;;;35.40;23.25;;;6.10;99.90;;;;;;5094097;28;20036;-54
2022/03/29 06:02:37;;;;;;;49.90;24.05;;;6.20;99.90;;;;;;5108555;27;20040;-53
2022/03/29 06:05:03;;;;;;;38.35;24.45;;;;;;;;;;5094673;28;20031;-53
2022/03/29 06:07:29;;;;;;;37.58;22.45;;;6.00;99.90;;;;;;5094272;28;20560;-53
2022/03/29 06:09:55;;;;;;;40.30;24.05;;;5.90;99.90;;;;;;5094184;28;20035;-54
2022/03/29 06:12:21;;;;;;;35.47;22.02;;;6.20;99.90;;;;;;5094305;28;20051;-52
2022/03/29 06:14:47;;;;;;;40.35;24.70;;;6.20;99.90;;;;;;5094151;28;20063;-53
2022/03/29 06:17:13;;;;;;;42.80;23.40;;;6.20;99.90;;;;;;5077145;28;20401;-53
2022/03/29 06:19:39;;;;;;;41.10;23.85;;;6.00;99.90;;;;;;5075305;28;20191;-50
2022/03/29 06:22:04;;;;;;;38.97;24.63;;;6.20;99.90;;;;;;5093994;28;20103;-52
2022/03/29 06:24:31;;;;;;;36.60;23.40;;;6.20;99.90;;;;;;5093840;28;20042;-51
2022/03/29 06:26:58;;;;;;;33.42;22.95;;;6.20;99.90;;;;;;5095375;28;20048;-54
2022/03/29 06:29:24;;;;;;;39.22;23.08;;;6.30;99.90;;;;;;5094063;28;20119;-53
2022/03/29 06:31:50;;;;;;;33.80;22.45;;;6.40;99.90;;;;;;5093949;28;20065;-52
2022/03/29 06:34:15;;;;;;;36.50;24.02;;;6.30;99.90;;;;;;5094043;28;20063;-50
2022/03/29 06:36:43;;;;;;;35.55;23.98;;;6.30;99.90;;;;;;5094015;28;20689;-53
2022/03/29 06:39:11;;;;;;;28.27;21.85;;;6.30;99.90;;;;;;5095385;28;20542;-53
2022/03/29 06:41:38;;;;;;;37.67;22.33;;;6.30;99.90;;;;;;5093328;28;20044;-53
2022/03/29 06:44:08;;;;;;;36.92;22.20;;;6.50;99.90;;;;;;5093912;28;20098;-51
2022/03/29 06:46:39;;;;;;;39.22;23.40;;;6.40;99.90;;;;;;5092318;28;20086;-54
2022/03/29 06:49:06;;;;;;;36.63;22.05;;;6.40;99.90;;;;;;5093030;28;20039;-50
2022/03/29 06:51:35;;;;;;;36.35;22.25;;;6.60;99.90;;;;;;5092725;28;24757;-49
2022/03/29 06:54:01;;;;;;;37.83;23.33;;;6.50;99.90;;;;;;5091862;28;20039;-53
2022/03/29 06:56:28;;;;;;;32.63;22.10;;;;;;;;;;5094407;28;20043;-54
2022/03/29 06:58:54;;;;;;;36.13;22.58;;;;;;;;;;5093845;28;20043;-54
2022/03/29 07:01:21;;;;;;;37.08;22.27;;;6.60;99.90;;;;;;5092889;28;20044;-52
2022/03/29 07:03:47;;;;;;;33.20;22.02;;;6.60;99.90;;;;;;5091743;28;20442;-54
2022/03/29 07:06:15;;;;;;;36.97;24.75;;;7.30;99.90;;;;;;5094862;28;20073;-53
2022/03/29 07:11:25;;;;;;;39.22;22.83;;;6.50;99.90;;;;;;5093126;28;20135;-51
2022/03/29 07:13:51;;;;;;;31.45;21.70;;;6.60;99.90;;;;;;5093231;28;20134;-51
2022/03/29 07:16:17;;;;;;;36.63;23.65;;;6.40;99.90;;;;;;5074401;28;20637;-52
2022/03/29 07:18:45;;;;;;;39.40;23.77;;;6.70;99.90;;;;;;5091759;28;20047;-51
2022/03/29 07:21:10;;;;;;;36.70;23.55;;;6.80;99.90;;;;;;5107379;27;20235;-51
2022/03/29 07:23:37;;;;;;;34.03;22.17;;;6.90;99.90;;;;;;5074528;28;20031;-53
2022/03/29 07:26:05;;;;;;;38.00;22.40;;;7.40;99.90;;;;;;5093495;28;20039;-51
2022/03/29 07:28:31;;;;;;;39.00;21.80;;;6.90;99.90;;;;;;5072270;28;20054;-50
2022/03/29 07:30:57;;;;;;;39.80;23.73;;;6.90;99.90;;;;;;5092265;28;20031;-51
2022/03/29 07:33:25;;;;;;;35.42;22.13;;;6.70;99.90;;;;;;5093249;28;20079;-52
2022/03/29 07:35:50;;;;;;;37.15;22.70;;;6.80;99.90;;;;;;5093112;28;20039;-52
2022/03/29 07:38:16;;;;;;;36.90;21.95;;;6.80;99.90;;;;;;5093934;28;20498;-53
2022/03/29 07:40:44;;;;;;;35.65;21.92;;;6.70;99.90;;;;;;5094378;28;20027;-54
2022/03/29 07:43:11;;;;;;;40.97;22.80;;;7.10;99.90;;;;;;5094273;28;20136;-51
2022/03/29 07:45:37;;;;;;;39.97;24.17;;;7.70;99.90;;;;;;5093091;28;20573;-50
2022/03/29 07:48:04;;;;;;;36.83;23.98;;;7.00;99.90;;;;;;5075199;28;20127;-52
2022/03/29 07:50:33;;;;;;;41.55;27.33;;;6.80;99.90;;;;;;5092290;28;20919;-54
2022/03/29 07:53:00;;;;;;;36.65;23.55;;;7.40;99.90;;;;;;5076613;28;20047;-51
2022/03/29 07:55:27;;;;;;;38.58;24.45;;;7.10;99.90;;;;;;5093738;28;20085;-52
2022/03/29 07:57:53;;;;;;;36.90;24.98;;;7.00;99.90;;;;;;5092401;28;20061;-49
2022/03/29 08:00:37;;;;;;;42.13;23.33;;;7.70;99.90;;;;;;5073833;28;20062;-51
2022/03/29 08:03:09;;;;;;;43.25;23.67;;;7.20;99.90;;;;;;5074524;28;20122;-52
2022/03/29 08:05:36;;;;;;;44.75;22.73;;;7.20;99.90;;;;;;5092085;28;20150;-49
2022/03/29 08:08:02;;;;;;;40.67;25.15;;;7.10;99.90;;;;;;5091699;28;20478;-52
2022/03/29 08:10:31;;;;;;;41.45;24.25;;;7.50;99.90;;;;;;5092849;28;20605;-53
2022/03/29 08:13:01;;;;;;;42.92;26.27;;;8.90;99.90;;;;;;5091431;28;20506;-49
2022/03/29 08:15:28;;;;;;;40.55;24.08;;;7.60;99.90;;;;;;5090339;28;20072;-53
2022/03/29 08:17:56;;;;;;;37.92;24.05;;;9.70;99.90;;;;;;5091608;28;20581;-51
2022/03/29 08:20:21;;;;;;;38.25;23.60;;;7.30;99.90;;;;;;5091932;28;20088;-49
2022/03/29 08:22:48;;;;;;;40.92;24.42;;;7.80;99.90;;;;;;5090269;28;20701;-53
2022/03/29 08:25:16;;;;;;;39.42;24.10;;;7.80;99.90;;;;;;5090710;28;20680;-52
2022/03/29 08:27:44;;;;;;;38.95;22.70;;;9.80;99.90;;;;;;5090896;28;20051;-54
2022/03/29 08:30:11;;;;;;;36.70;22.10;;;9.50;99.90;;;;;;5092014;28;20120;-51
2022/03/29 08:32:37;;;;;;;35.35;22.30;;;8.10;99.90;;;;;;5090287;28;20566;-53
2022/03/29 08:35:05;;;;;;;40.40;24.05;;;8.20;99.90;;;;;;5089259;28;20055;-54
2022/03/29 08:37:30;;;;;;;41.47;23.10;;;8.30;99.90;;;;;;5090510;28;20588;-53
2022/03/29 08:39:58;;;;;;;34.97;22.05;;;8.50;99.90;;;;;;5072555;28;20191;-52
2022/03/29 08:42:25;;;;;;;35.50;21.65;;;8.60;99.90;;;;;;5091814;28;20707;-54
2022/03/29 08:44:50;;;;;;;33.25;21.55;;;8.60;99.90;;;;;;5090828;28;20054;-52
2022/03/29 08:47:18;;;;;;;33.22;22.30;;;8.90;99.90;;;;;;5092178;28;20044;-53
2022/03/29 08:49:48;;;;;;;39.00;22.73;;;8.80;99.90;;;;;;5091390;28;20769;-55
2022/03/29 08:52:16;;;;;;;37.15;23.55;;;11.00;99.90;;;;;;5092401;28;20066;-54
2022/03/29 08:54:43;;;;;;;54.35;32.47;;;9.20;99.90;;;;;;5089464;28;20036;-50
2022/03/29 08:57:10;;;;;;;32.63;20.20;;;9.30;99.90;;;;;;5091163;28;20054;-50
2022/03/29 08:59:36;;;;;;;51.20;27.02;;;9.30;99.90;;;;;;5091363;28;20598;-49
2022/03/29 09:02:11;;;;;;;39.03;24.10;;;9.40;99.90;;;;;;5090545;28;20053;-51
2022/03/29 09:04:37;;;;;;;31.33;21.38;;;9.40;99.90;;;;;;5071803;28;20043;-54
2022/03/29 09:07:03;;;;;;;47.17;20.90;;;10.60;99.90;;;;;;5091677;28;20404;-49
2022/03/29 09:09:30;;;;;;;39.83;20.08;;;9.90;99.90;;;;;;5071967;28;20486;-49
2022/03/29 09:11:58;;;;;;;41.30;23.70;;;9.10;99.90;;;;;;5091394;28;20579;-53
2022/03/29 09:14:26;;;;;;;36.53;20.42;;;10.00;99.90;;;;;;5090337;28;20047;-50
2022/03/29 09:16:52;;;;;;;32.53;18.30;;;9.90;99.90;;;;;;5090381;28;20572;-49
2022/03/29 09:19:23;;;;;;;34.33;19.77;;;9.60;99.90;;;;;;5090290;28;20040;-48
2022/03/29 09:21:51;;;;;;;32.17;16.77;;;9.70;99.90;;;;;;5090033;28;20070;-49
2022/03/29 09:24:18;;;;;;;33.17;15.55;;;9.40;99.90;;;;;;5090273;28;20171;-48
2022/03/29 09:26:55;;;;;;;31.65;13.95;;;9.50;99.90;;;;;;5091360;28;20066;-48
2022/03/29 09:29:22;;;;;;;28.92;13.45;;;9.50;99.90;;;;;;5091476;28;20074;-52
2022/03/29 09:32:06;;;;;;;24.67;11.55;;;9.70;99.90;;;;;;5091456;28;20239;-48
2022/03/29 09:34:33;;;;;;;30.17;14.25;;;10.40;99.90;;;;;;5090909;28;20043;-53
2022/03/29 09:37:00;;;;;;;31.52;12.82;;;10.00;99.90;;;;;;5090941;28;20028;-49
2022/03/29 09:39:29;;;;;;;28.20;10.48;;;10.60;99.90;;;;;;5090143;28;20126;-50
2022/03/29 09:42:00;;;;;;;27.63;10.75;;;11.10;99.90;;;;;;5091769;28;20043;-51
2022/03/29 09:44:41;;;;;;;30.55;12.43;;;11.30;99.90;;;;;;5071852;28;20040;-48
2022/03/29 09:47:11;;;;;;;28.45;11.93;;;12.30;99.90;;;;;;5089868;28;20504;-49
2022/03/29 09:49:55;;;;;;;26.30;11.20;;;11.10;99.90;;;;;;5090248;28;20053;-51
2022/03/29 09:52:27;;;;;;;23.35;11.52;;;11.10;99.90;;;;;;5089054;28;20120;-50
2022/03/29 09:55:15;;;;;;;30.45;11.77;;;11.20;99.90;;;;;;5088249;28;20043;-51
2022/03/29 09:57:46;;;;;;;28.85;10.60;;;11.20;99.90;;;;;;5088488;28;20444;-53
2022/03/29 10:00:16;;;;;;;28.00;11.23;;;12.30;99.90;;;;;;5089597;28;20050;-50
2022/03/29 10:02:45;;;;;;;24.92;9.55;;;12.30;99.90;;;;;;5089520;28;20035;-52
2022/03/29 10:05:12;;;;;;;29.30;10.70;;;11.90;99.90;;;;;;5072521;28;20116;-49
2022/03/29 10:07:43;;;;;;;27.88;10.98;;;11.10;99.90;;;;;;5090539;28;20043;-50
2022/03/29 10:10:11;;;;;;;33.92;10.32;;;11.00;99.90;;;;;;5090126;28;20050;-49
2022/03/29 10:12:38;;;;;;;30.60;10.25;;;10.90;99.90;;;;;;5090498;28;20844;-48
2022/03/29 10:15:05;;;;;;;26.23;10.52;;;11.10;99.90;;;;;;5090666;28;20084;-51
2022/03/29 10:17:33;;;;;;;24.73;10.18;;;11.00;99.90;;;;;;5072192;28;20050;-52
2022/03/29 10:20:01;;;;;;;30.33;10.38;;;11.00;99.90;;;;;;5089022;28;20126;-50
2022/03/29 10:22:27;;;;;;;26.58;9.95;;;10.80;99.90;;;;;;5089222;28;20843;-52
2022/03/29 10:24:55;;;;;;;28.02;9.70;;;12.30;99.90;;;;;;5089982;28;20036;-48
2022/03/29 10:27:21;;;;;;;27.45;9.80;;;10.70;99.90;;;;;;5089680;28;20047;-52
2022/03/29 10:29:48;;;;;;;26.23;10.27;;;10.40;99.90;;;;;;5072343;28;20462;-49
2022/03/29 10:32:28;;;;;;;21.80;8.10;;;10.40;99.90;;;;;;5071773;28;20089;-48
2022/03/29 10:35:10;;;;;;;22.70;9.63;;;10.50;99.90;;;;;;5087766;28;20039;-49
2022/03/29 10:37:53;;;;;;;23.67;8.82;;;10.80;99.90;;;;;;5092808;28;20039;-52
2022/03/29 10:40:37;;;;;;;29.52;9.20;;;11.10;99.90;;;;;;5092792;28;21413;-52
2022/03/29 10:43:24;;;;;;;26.52;8.75;;;12.00;99.90;;;;;;5094447;28;20032;-52
2022/03/29 10:45:50;;;;;;;32.08;11.20;;;11.40;99.90;;;;;;5092069;28;20713;-51
2022/03/29 10:48:17;;;;;;;23.73;10.75;;;12.80;99.90;;;;;;5093192;28;20044;-49
2022/03/29 10:50:53;;;;;;;26.05;10.38;;;12.70;99.90;;;;;;5093146;28;20051;-53
2022/03/29 10:53:23;;;;;;;30.08;11.75;;;12.30;99.90;;;;;;5092257;28;20050;-48
2022/03/29 10:56:19;;;;;;;23.65;9.15;;;11.60;99.90;;;;;;5074894;28;20081;-48
2022/03/29 10:59:02;;;;;;;23.63;8.65;;;12.00;99.90;;;;;;5092103;28;20089;-51
2022/03/29 11:01:34;;;;;;;26.50;10.43;;;11.90;99.90;;;;;;5095044;28;20043;-50
2022/03/29 11:04:19;;;;;;;24.85;9.15;;;12.80;99.90;;;;;;5094330;28;20813;-52
2022/03/29 11:07:10;;;;;;;25.27;9.73;;;13.40;99.90;;;;;;5093544;28;20040;-48
2022/03/29 11:09:37;;;;;;;25.27;9.77;;;13.10;99.90;;;;;;5093955;28;20107;-52
2022/03/29 11:12:03;;;;;;;24.92;8.80;;;11.70;99.90;;;;;;5094021;28;20500;-49
2022/03/29 11:14:30;;;;;;;25.13;10.15;;;11.70;99.90;;;;;;5093848;28;20135;-50
2022/03/29 11:17:16;;;;;;;28.98;8.98;;;13.10;99.90;;;;;;5093397;28;20058;-48
2022/03/29 11:19:53;;;;;;;22.95;8.38;;;12.30;99.90;;;;;;5009035;28;20115;-48
2022/03/29 11:22:41;;;;;;;22.98;8.52;;;12.00;99.90;;;;;;5008786;28;20061;-48
2022/03/29 11:25:10;;;;;;;21.30;8.02;;;11.40;99.90;;;;;;5008215;28;20049;-48
2022/03/29 11:27:37;;;;;;;22.67;8.27;;;12.30;99.90;;;;;;5008193;28;20075;-51
2022/03/29 11:30:06;;;;;;;24.58;7.80;;;11.50;99.90;;;;;;5006952;28;20856;-51
2022/03/29 11:32:35;;;;;;;24.95;8.43;;;11.40;99.90;;;;;;5009375;28;20045;-48
2022/03/29 11:35:04;;;;;;;27.25;8.63;;;13.40;99.90;;;;;;4991966;28;20081;-48
2022/03/29 11:37:40;;;;;;;24.40;8.25;;;11.40;99.90;;;;;;5008191;28;20061;-49
2022/03/29 11:40:10;;;;;;;25.52;8.73;;;11.80;99.90;;;;;;5009407;28;20818;-53
2022/03/29 11:42:55;;;;;;;25.58;11.10;;;11.30;99.90;;;;;;5008547;28;20854;-51
2022/03/29 11:45:23;;;;;;;19.42;8.35;;;11.20;99.90;;;;;;5008264;28;20113;-49
2022/03/29 11:48:07;;;;;;;25.25;9.13;;;11.30;99.90;;;;;;5007828;28;20320;-50
2022/03/29 11:50:37;;;;;;;23.52;8.98;;;11.30;99.90;;;;;;5009058;28;20061;-50
2022/03/29 11:53:22;;;;;;;20.83;8.32;;;11.00;99.90;;;;;;4992725;28;20042;-49
2022/03/29 11:55:58;;;;;;;26.55;9.40;;;11.10;99.90;;;;;;5013245;28;20045;-50
2022/03/29 11:58:41;;;;;;;24.67;9.55;;;10.90;99.90;;;;;;5091974;28;20054;-50
2022/03/29 12:01:28;;;;;;;20.33;8.27;;;10.70;99.90;;;;;;5091699;28;20044;-49
2022/03/29 12:04:03;;;;;;;19.63;8.63;;;10.90;99.90;;;;;;5090598;28;20127;-50
2022/03/29 12:06:31;;;;;;;23.88;9.48;;;11.20;99.90;;;;;;5090733;28;20050;-47
2022/03/29 12:09:02;;;;;;;30.48;10.27;;;11.00;99.90;;;;;;5090509;28;20239;-47
2022/03/29 12:11:39;;;;;;;22.20;8.65;;;11.30;99.90;;;;;;5090996;28;20703;-49
2022/03/29 12:14:18;;;;;;;23.17;9.10;;;11.90;99.90;;;;;;5092028;28;20032;-48
2022/03/29 12:16:51;;;;;;;21.40;8.48;;;11.20;99.90;;;;;;5091848;28;20512;-48
2022/03/29 12:19:25;;;;;;;22.55;9.15;;;12.80;99.90;;;;;;5091863;28;20047;-50
2022/03/29 12:21:53;;;;;;;23.60;8.85;;;11.50;99.90;;;;;;5091149;28;20031;-50
2022/03/29 12:24:20;;;;;;;23.17;8.88;;;11.70;99.90;;;;;;5091719;28;20043;-53
2022/03/29 12:26:51;;;;;;;24.45;9.05;;;13.40;99.90;;;;;;5092433;28;20046;-52
2022/03/29 12:29:21;;;;;;;29.05;9.32;;;11.30;99.90;;;;;;5092026;28;20036;-47
2022/03/29 12:31:48;;;;;;;23.50;8.77;;;12.10;99.90;;;;;;5091513;28;20134;-50
2022/03/29 12:34:18;;;;;;;23.10;8.55;;;11.50;99.90;;;;;;5092089;28;20066;-48
2022/03/29 12:36:53;;;;;;;21.70;8.93;;;11.30;99.90;;;;;;5090700;28;20542;-48
2022/03/29 12:39:18;;;;;;;19.42;8.32;;;13.40;99.90;;;;;;5092004;28;20036;-52
2022/03/29 12:41:52;;;;;;;20.67;8.57;;;11.90;99.90;;;;;;5092099;28;20143;-51
2022/03/29 12:44:43;;;;;;;20.48;8.43;;;10.90;99.90;;;;;;5091603;28;20434;-50
2022/03/29 12:47:10;;;;;;;18.23;8.85;;;11.50;99.90;;;;;;5091909;28;20250;-49
2022/03/29 12:49:37;;;;;;;19.10;8.38;;;12.20;99.90;;;;;;5092185;28;20039;-49
2022/03/29 12:52:06;;;;;;;27.40;9.48;;;12.10;99.90;;;;;;5089860;28;20499;-50
2022/03/29 12:54:45;;;;;;;22.58;8.40;;;12.20;99.90;;;;;;5089392;28;20126;-50